sensor_id;sensor_type;location;lat;lon;timestamp;temperature;humidity
774;DHT22;370;48.810;9.150;2023-04-24T00:01:01;11.40;22.10
774;DHT22;370;48.810;9.150;2023-04-24T00:03:29;11.40;21.30
774;DHT22;370;48.810;9.150;2023-04-24T00:05:56;11.50;20.30
774;DHT22;370;48.810;9.150;2023-04-24T00:08:24;11.50;19.00
774;DHT22;370;48.810;9.150;2023-04-24T00:10:51;11.60;16.80
774;DHT22;370;48.810;9.150;2023-04-24T00:13:18;11.60;16.80
774;DHT22;370;48.810;9.150;2023-04-24T00:15:45;11.70;16.80
774;DHT22;370;48.810;9.150;2023-04-24T00:18:12;11.70;15.90
774;DHT22;370;48.810;9.150;2023-04-24T00:20:40;11.70;15.70
774;DHT22;370;48.810;9.150;2023-04-24T00:23:09;11.70;14.90
774;DHT22;370;48.810;9.150;2023-04-24T00:25:35;11.80;15.00
774;DHT22;370;48.810;9.150;2023-04-24T00:28:02;11.90;15.10
774;DHT22;370;48.810;9.150;2023-04-24T00:30:29;11.90;15.10
774;DHT22;370;48.810;9.150;2023-04-24T00:32:57;11.90;13.20
774;DHT22;370;48.810;9.150;2023-04-24T00:35:23;12.00;13.60
774;DHT22;370;48.810;9.150;2023-04-24T00:37:51;12.00;13.50
774;DHT22;370;48.810;9.150;2023-04-24T00:40:18;12.00;12.80
774;DHT22;370;48.810;9.150;2023-04-24T00:42:45;12.10;13.00
774;DHT22;370;48.810;9.150;2023-04-24T00:45:12;12.10;12.00
774;DHT22;370;48.810;9.150;2023-04-24T00:47:39;12.10;12.10
774;DHT22;370;48.810;9.150;2023-04-24T00:50:08;12.10;13.10
774;DHT22;370;48.810;9.150;2023-04-24T00:52:36;12.10;11.90
774;DHT22;370;48.810;9.150;2023-04-24T00:55:08;12.10;12.80
774;DHT22;370;48.810;9.150;2023-04-24T00:57:35;12.10;12.00
774;DHT22;370;48.810;9.150;2023-04-24T01:00:02;12.10;12.40
774;DHT22;370;48.810;9.150;2023-04-24T01:02:31;12.10;11.80
774;DHT22;370;48.810;9.150;2023-04-24T01:04:59;12.20;11.30
774;DHT22;370;48.810;9.150;2023-04-24T01:07:27;12.10;10.90
774;DHT22;370;48.810;9.150;2023-04-24T01:09:53;12.10;11.00
774;DHT22;370;48.810;9.150;2023-04-24T01:12:21;12.10;11.20
774;DHT22;370;48.810;9.150;2023-04-24T01:14:49;12.10;12.10
774;DHT22;370;48.810;9.150;2023-04-24T01:17:16;12.20;11.10
774;DHT22;370;48.810;9.150;2023-04-24T01:19:42;12.20;10.90
774;DHT22;370;48.810;9.150;2023-04-24T01:22:13;12.20;10.80
774;DHT22;370;48.810;9.150;2023-04-24T01:24:40;12.20;10.90
774;DHT22;370;48.810;9.150;2023-04-24T01:27:08;12.20;11.20
774;DHT22;370;48.810;9.150;2023-04-24T01:29:36;12.20;11.30
774;DHT22;370;48.810;9.150;2023-04-24T01:32:03;12.10;10.50
774;DHT22;370;48.810;9.150;2023-04-24T01:34:30;12.10;11.60
774;DHT22;370;48.810;9.150;2023-04-24T01:36:57;12.00;11.90
774;DHT22;370;48.810;9.150;2023-04-24T01:39:26;11.90;11.90
774;DHT22;370;48.810;9.150;2023-04-24T01:41:53;11.90;12.50
774;DHT22;370;48.810;9.150;2023-04-24T01:44:20;11.80;13.10
774;DHT22;370;48.810;9.150;2023-04-24T01:46:47;11.80;13.30
774;DHT22;370;48.810;9.150;2023-04-24T01:49:14;11.80;14.10
774;DHT22;370;48.810;9.150;2023-04-24T01:51:41;11.70;14.60
774;DHT22;370;48.810;9.150;2023-04-24T01:54:08;11.70;14.90
774;DHT22;370;48.810;9.150;2023-04-24T01:56:36;11.70;14.90
774;DHT22;370;48.810;9.150;2023-04-24T01:59:06;11.70;14.90
774;DHT22;370;48.810;9.150;2023-04-24T02:01:36;11.60;14.90
774;DHT22;370;48.810;9.150;2023-04-24T02:04:03;11.60;15.80
774;DHT22;370;48.810;9.150;2023-04-24T02:06:29;11.60;16.30
774;DHT22;370;48.810;9.150;2023-04-24T02:08:56;11.50;16.70
774;DHT22;370;48.810;9.150;2023-04-24T02:11:23;11.50;17.00
774;DHT22;370;48.810;9.150;2023-04-24T02:13:51;11.50;16.80
774;DHT22;370;48.810;9.150;2023-04-24T02:16:18;11.50;16.90
774;DHT22;370;48.810;9.150;2023-04-24T02:18:45;11.40;17.40
774;DHT22;370;48.810;9.150;2023-04-24T02:21:12;11.50;17.60
774;DHT22;370;48.810;9.150;2023-04-24T02:23:38;11.50;17.90
774;DHT22;370;48.810;9.150;2023-04-24T02:26:06;11.50;17.90
774;DHT22;370;48.810;9.150;2023-04-24T02:28:33;11.50;18.00
774;DHT22;370;48.810;9.150;2023-04-24T02:31:01;11.60;17.90
774;DHT22;370;48.810;9.150;2023-04-24T02:33:28;11.60;17.10
774;DHT22;370;48.810;9.150;2023-04-24T02:35:54;11.70;17.10
774;DHT22;370;48.810;9.150;2023-04-24T02:38:21;11.70;16.60
774;DHT22;370;48.810;9.150;2023-04-24T02:40:48;11.70;16.80
774;DHT22;370;48.810;9.150;2023-04-24T02:43:15;11.80;19.80
774;DHT22;370;48.810;9.150;2023-04-24T02:45:41;11.60;27.20
774;DHT22;370;48.810;9.150;2023-04-24T02:48:09;11.40;33.30
774;DHT22;370;48.810;9.150;2023-04-24T02:50:36;11.20;37.60
774;DHT22;370;48.810;9.150;2023-04-24T02:53:03;11.10;41.60
774;DHT22;370;48.810;9.150;2023-04-24T02:55:30;10.90;45.50
774;DHT22;370;48.810;9.150;2023-04-24T02:57:57;10.90;46.50
774;DHT22;370;48.810;9.150;2023-04-24T03:00:23;10.80;48.20
774;DHT22;370;48.810;9.150;2023-04-24T03:02:50;10.70;51.20
774;DHT22;370;48.810;9.150;2023-04-24T03:05:18;10.70;51.30
774;DHT22;370;48.810;9.150;2023-04-24T03:07:45;10.60;51.50
774;DHT22;370;48.810;9.150;2023-04-24T03:10:12;10.60;52.50
774;DHT22;370;48.810;9.150;2023-04-24T03:12:39;10.50;53.10
774;DHT22;370;48.810;9.150;2023-04-24T03:15:07;10.50;54.30
774;DHT22;370;48.810;9.150;2023-04-24T03:17:33;10.40;54.60
774;DHT22;370;48.810;9.150;2023-04-24T03:20:00;10.40;54.90
774;DHT22;370;48.810;9.150;2023-04-24T03:22:29;10.30;54.20
774;DHT22;370;48.810;9.150;2023-04-24T03:24:57;10.20;55.50
774;DHT22;370;48.810;9.150;2023-04-24T03:27:24;10.20;55.60
774;DHT22;370;48.810;9.150;2023-04-24T03:29:51;10.10;55.20
774;DHT22;370;48.810;9.150;2023-04-24T03:32:21;10.10;56.80
774;DHT22;370;48.810;9.150;2023-04-24T03:34:48;10.20;57.80
774;DHT22;370;48.810;9.150;2023-04-24T03:37:15;10.20;57.80
774;DHT22;370;48.810;9.150;2023-04-24T03:39:43;10.20;57.70
774;DHT22;370;48.810;9.150;2023-04-24T03:42:10;10.20;56.60
774;DHT22;370;48.810;9.150;2023-04-24T03:44:37;10.20;55.80
774;DHT22;370;48.810;9.150;2023-04-24T03:47:03;10.10;54.40
774;DHT22;370;48.810;9.150;2023-04-24T03:49:30;10.10;55.00
774;DHT22;370;48.810;9.150;2023-04-24T03:51:57;10.00;55.30
774;DHT22;370;48.810;9.150;2023-04-24T03:54:24;10.00;55.60
774;DHT22;370;48.810;9.150;2023-04-24T03:56:52;9.90;56.40
774;DHT22;370;48.810;9.150;2023-04-24T03:59:19;9.90;57.40
774;DHT22;370;48.810;9.150;2023-04-24T04:01:45;9.90;57.70
774;DHT22;370;48.810;9.150;2023-04-24T04:04:12;9.80;56.80
774;DHT22;370;48.810;9.150;2023-04-24T04:06:39;9.80;57.80
774;DHT22;370;48.810;9.150;2023-04-24T04:09:05;9.80;58.10
774;DHT22;370;48.810;9.150;2023-04-24T04:11:32;9.80;59.90
774;DHT22;370;48.810;9.150;2023-04-24T04:14:02;10.00;59.30
774;DHT22;370;48.810;9.150;2023-04-24T04:16:29;10.00;58.30
774;DHT22;370;48.810;9.150;2023-04-24T04:18:55;10.00;57.30
774;DHT22;370;48.810;9.150;2023-04-24T04:21:22;10.10;56.00
774;DHT22;370;48.810;9.150;2023-04-24T04:23:49;10.20;55.20
774;DHT22;370;48.810;9.150;2023-04-24T04:26:16;10.20;53.50
774;DHT22;370;48.810;9.150;2023-04-24T04:28:44;10.30;43.20
774;DHT22;370;48.810;9.150;2023-04-24T04:31:12;10.20;40.90
774;DHT22;370;48.810;9.150;2023-04-24T04:33:39;10.20;43.50
774;DHT22;370;48.810;9.150;2023-04-24T04:36:06;10.20;40.40
774;DHT22;370;48.810;9.150;2023-04-24T04:38:34;10.10;34.40
774;DHT22;370;48.810;9.150;2023-04-24T04:41:00;10.10;34.30
774;DHT22;370;48.810;9.150;2023-04-24T04:43:27;10.00;34.40
774;DHT22;370;48.810;9.150;2023-04-24T04:45:54;10.00;35.00
774;DHT22;370;48.810;9.150;2023-04-24T04:48:22;10.00;36.10
774;DHT22;370;48.810;9.150;2023-04-24T04:50:49;10.00;36.10
774;DHT22;370;48.810;9.150;2023-04-24T04:53:16;9.90;36.00
774;DHT22;370;48.810;9.150;2023-04-24T04:55:43;9.90;38.80
774;DHT22;370;48.810;9.150;2023-04-24T04:58:10;9.90;38.00
774;DHT22;370;48.810;9.150;2023-04-24T05:00:37;9.90;36.00
774;DHT22;370;48.810;9.150;2023-04-24T05:03:03;9.90;33.60
774;DHT22;370;48.810;9.150;2023-04-24T05:05:32;9.80;35.10
774;DHT22;370;48.810;9.150;2023-04-24T05:07:58;9.80;34.60
774;DHT22;370;48.810;9.150;2023-04-24T05:10:25;9.80;32.30
774;DHT22;370;48.810;9.150;2023-04-24T05:12:52;9.70;32.60
774;DHT22;370;48.810;9.150;2023-04-24T05:15:19;9.60;34.50
774;DHT22;370;48.810;9.150;2023-04-24T05:17:46;9.60;31.70
774;DHT22;370;48.810;9.150;2023-04-24T05:20:12;9.70;33.60
774;DHT22;370;48.810;9.150;2023-04-24T05:22:41;9.70;31.10
774;DHT22;370;48.810;9.150;2023-04-24T05:25:08;9.70;31.10
774;DHT22;370;48.810;9.150;2023-04-24T05:27:35;9.60;31.10
774;DHT22;370;48.810;9.150;2023-04-24T05:30:02;9.60;33.40
774;DHT22;370;48.810;9.150;2023-04-24T05:32:30;9.70;35.00
774;DHT22;370;48.810;9.150;2023-04-24T05:34:56;9.80;34.00
774;DHT22;370;48.810;9.150;2023-04-24T05:37:23;9.90;33.90
774;DHT22;370;48.810;9.150;2023-04-24T05:39:51;9.90;33.00
774;DHT22;370;48.810;9.150;2023-04-24T05:42:18;9.90;31.10
774;DHT22;370;48.810;9.150;2023-04-24T05:44:45;9.90;32.60
774;DHT22;370;48.810;9.150;2023-04-24T05:47:12;9.90;31.30
774;DHT22;370;48.810;9.150;2023-04-24T05:49:38;10.00;29.40
774;DHT22;370;48.810;9.150;2023-04-24T05:52:05;10.10;27.20
774;DHT22;370;48.810;9.150;2023-04-24T05:54:34;10.20;26.50
774;DHT22;370;48.810;9.150;2023-04-24T05:57:02;10.30;25.30
774;DHT22;370;48.810;9.150;2023-04-24T05:59:32;10.40;27.00
774;DHT22;370;48.810;9.150;2023-04-24T06:01:59;10.30;25.80
774;DHT22;370;48.810;9.150;2023-04-24T06:04:26;10.40;23.40
774;DHT22;370;48.810;9.150;2023-04-24T06:06:53;10.60;25.50
774;DHT22;370;48.810;9.150;2023-04-24T06:09:21;10.50;21.90
774;DHT22;370;48.810;9.150;2023-04-24T06:11:48;10.50;22.40
774;DHT22;370;48.810;9.150;2023-04-24T06:14:16;10.50;20.80
774;DHT22;370;48.810;9.150;2023-04-24T06:16:43;10.50;18.40
774;DHT22;370;48.810;9.150;2023-04-24T06:19:10;10.60;19.40
774;DHT22;370;48.810;9.150;2023-04-24T06:21:37;10.60;18.00
774;DHT22;370;48.810;9.150;2023-04-24T06:24:03;10.80;17.50
774;DHT22;370;48.810;9.150;2023-04-24T06:26:30;11.20;15.30
774;DHT22;370;48.810;9.150;2023-04-24T06:28:57;11.60;13.50
774;DHT22;370;48.810;9.150;2023-04-24T06:31:27;12.10;11.90
774;DHT22;370;48.810;9.150;2023-04-24T06:33:53;12.60;6.80
774;DHT22;370;48.810;9.150;2023-04-24T06:36:20;13.10;7.10
774;DHT22;370;48.810;9.150;2023-04-24T06:38:47;13.30;2.70
774;DHT22;370;48.810;9.150;2023-04-24T06:41:14;13.40;1.00
774;DHT22;370;48.810;9.150;2023-04-24T06:43:40;13.80;1.00
774;DHT22;370;48.810;9.150;2023-04-24T06:46:07;14.40;1.00
774;DHT22;370;48.810;9.150;2023-04-24T06:48:35;15.10;1.00
774;DHT22;370;48.810;9.150;2023-04-24T06:51:02;16.00;1.00
774;DHT22;370;48.810;9.150;2023-04-24T06:53:29;16.50;1.00
774;DHT22;370;48.810;9.150;2023-04-24T06:55:56;16.80;1.00
774;DHT22;370;48.810;9.150;2023-04-24T06:58:23;17.30;1.00
774;DHT22;370;48.810;9.150;2023-04-24T07:00:50;17.50;1.00
774;DHT22;370;48.810;9.150;2023-04-24T07:03:17;18.00;1.00
774;DHT22;370;48.810;9.150;2023-04-24T07:05:45;18.10;1.00
774;DHT22;370;48.810;9.150;2023-04-24T07:08:13;18.80;1.00
774;DHT22;370;48.810;9.150;2023-04-24T07:10:41;18.70;1.00
774;DHT22;370;48.810;9.150;2023-04-24T07:13:08;18.10;1.00
774;DHT22;370;48.810;9.150;2023-04-24T07:15:35;17.50;1.00
774;DHT22;370;48.810;9.150;2023-04-24T07:18:02;16.90;1.00
774;DHT22;370;48.810;9.150;2023-04-24T07:20:28;16.20;1.00
774;DHT22;370;48.810;9.150;2023-04-24T07:22:57;15.80;1.00
774;DHT22;370;48.810;9.150;2023-04-24T07:25:23;15.50;1.00
774;DHT22;370;48.810;9.150;2023-04-24T07:27:50;15.20;1.00
774;DHT22;370;48.810;9.150;2023-04-24T07:30:17;14.90;1.00
774;DHT22;370;48.810;9.150;2023-04-24T07:32:43;14.70;1.00
774;DHT22;370;48.810;9.150;2023-04-24T07:35:10;15.10;1.00
774;DHT22;370;48.810;9.150;2023-04-24T07:37:37;15.40;1.00
774;DHT22;370;48.810;9.150;2023-04-24T07:40:06;15.80;1.00
774;DHT22;370;48.810;9.150;2023-04-24T07:42:33;16.70;1.00
774;DHT22;370;48.810;9.150;2023-04-24T07:45:01;17.70;1.00
774;DHT22;370;48.810;9.150;2023-04-24T07:47:28;18.20;1.00
774;DHT22;370;48.810;9.150;2023-04-24T07:49:55;18.70;1.00
774;DHT22;370;48.810;9.150;2023-04-24T07:52:22;18.20;1.00
774;DHT22;370;48.810;9.150;2023-04-24T07:54:49;17.80;1.00
774;DHT22;370;48.810;9.150;2023-04-24T07:57:19;17.70;1.00
774;DHT22;370;48.810;9.150;2023-04-24T07:59:46;17.20;1.00
774;DHT22;370;48.810;9.150;2023-04-24T08:02:12;17.10;1.00
774;DHT22;370;48.810;9.150;2023-04-24T08:04:40;17.00;1.00
774;DHT22;370;48.810;9.150;2023-04-24T08:07:06;16.60;1.00
774;DHT22;370;48.810;9.150;2023-04-24T08:09:33;17.00;1.00
774;DHT22;370;48.810;9.150;2023-04-24T08:12:00;17.70;1.00
774;DHT22;370;48.810;9.150;2023-04-24T08:14:29;17.90;1.00
774;DHT22;370;48.810;9.150;2023-04-24T08:16:56;18.70;1.00
774;DHT22;370;48.810;9.150;2023-04-24T08:19:24;18.90;1.00
774;DHT22;370;48.810;9.150;2023-04-24T08:21:51;18.90;1.00
774;DHT22;370;48.810;9.150;2023-04-24T08:24:18;18.90;1.00
774;DHT22;370;48.810;9.150;2023-04-24T08:26:45;19.10;1.00
774;DHT22;370;48.810;9.150;2023-04-24T08:29:12;19.60;1.00
774;DHT22;370;48.810;9.150;2023-04-24T08:31:40;20.00;1.00
774;DHT22;370;48.810;9.150;2023-04-24T08:34:06;20.40;1.00
774;DHT22;370;48.810;9.150;2023-04-24T08:36:33;20.80;1.00
774;DHT22;370;48.810;9.150;2023-04-24T08:39:00;21.40;1.00
774;DHT22;370;48.810;9.150;2023-04-24T08:41:27;22.00;1.00
774;DHT22;370;48.810;9.150;2023-04-24T08:43:55;22.00;1.00
774;DHT22;370;48.810;9.150;2023-04-24T08:46:24;21.70;1.00
774;DHT22;370;48.810;9.150;2023-04-24T08:48:52;20.50;1.00
774;DHT22;370;48.810;9.150;2023-04-24T08:54:42;17.90;1.00
774;DHT22;370;48.810;9.150;2023-04-24T08:57:11;17.80;1.00
774;DHT22;370;48.810;9.150;2023-04-24T08:59:40;19.10;1.00
774;DHT22;370;48.810;9.150;2023-04-24T09:02:10;19.80;1.00
774;DHT22;370;48.810;9.150;2023-04-24T09:04:39;21.20;1.00
774;DHT22;370;48.810;9.150;2023-04-24T09:07:07;22.60;1.00
774;DHT22;370;48.810;9.150;2023-04-24T09:09:35;21.60;1.00
774;DHT22;370;48.810;9.150;2023-04-24T09:12:02;19.90;1.00
774;DHT22;370;48.810;9.150;2023-04-24T09:14:29;18.30;1.00
774;DHT22;370;48.810;9.150;2023-04-24T09:16:57;16.70;1.00
774;DHT22;370;48.810;9.150;2023-04-24T09:19:24;15.80;1.00
774;DHT22;370;48.810;9.150;2023-04-24T09:21:53;14.90;1.00
774;DHT22;370;48.810;9.150;2023-04-24T09:24:21;14.20;1.00
774;DHT22;370;48.810;9.150;2023-04-24T09:26:49;13.70;1.00
774;DHT22;370;48.810;9.150;2023-04-24T09:29:22;13.30;1.00
774;DHT22;370;48.810;9.150;2023-04-24T09:31:49;13.00;1.00
774;DHT22;370;48.810;9.150;2023-04-24T09:34:21;13.20;1.00
774;DHT22;370;48.810;9.150;2023-04-24T09:36:49;13.40;1.00
774;DHT22;370;48.810;9.150;2023-04-24T09:39:18;13.70;1.00
774;DHT22;370;48.810;9.150;2023-04-24T09:41:47;14.80;1.00
774;DHT22;370;48.810;9.150;2023-04-24T09:44:15;18.50;1.00
774;DHT22;370;48.810;9.150;2023-04-24T09:46:43;20.10;1.00
774;DHT22;370;48.810;9.150;2023-04-24T09:49:12;20.10;1.00
774;DHT22;370;48.810;9.150;2023-04-24T09:51:40;19.30;1.00
774;DHT22;370;48.810;9.150;2023-04-24T09:54:14;18.40;1.00
774;DHT22;370;48.810;9.150;2023-04-24T09:56:44;18.00;1.00
774;DHT22;370;48.810;9.150;2023-04-24T09:59:11;18.00;1.00
774;DHT22;370;48.810;9.150;2023-04-24T10:01:38;17.80;1.00
774;DHT22;370;48.810;9.150;2023-04-24T10:04:15;17.60;1.00
774;DHT22;370;48.810;9.150;2023-04-24T10:06:43;17.80;1.00
774;DHT22;370;48.810;9.150;2023-04-24T10:09:10;17.70;1.00
774;DHT22;370;48.810;9.150;2023-04-24T10:11:43;17.70;1.00
774;DHT22;370;48.810;9.150;2023-04-24T10:14:12;18.80;1.00
774;DHT22;370;48.810;9.150;2023-04-24T10:16:39;21.10;1.00
774;DHT22;370;48.810;9.150;2023-04-24T10:19:07;23.80;1.00
774;DHT22;370;48.810;9.150;2023-04-24T10:21:34;25.60;1.00
774;DHT22;370;48.810;9.150;2023-04-24T10:24:03;27.70;1.00
774;DHT22;370;48.810;9.150;2023-04-24T10:26:32;28.10;1.00
774;DHT22;370;48.810;9.150;2023-04-24T10:29:01;27.10;1.00
774;DHT22;370;48.810;9.150;2023-04-24T10:31:31;25.80;1.00
774;DHT22;370;48.810;9.150;2023-04-24T10:33:58;23.80;1.00
774;DHT22;370;48.810;9.150;2023-04-24T10:36:27;21.80;1.00
774;DHT22;370;48.810;9.150;2023-04-24T10:39:00;20.20;1.00
774;DHT22;370;48.810;9.150;2023-04-24T10:41:27;18.90;1.00
774;DHT22;370;48.810;9.150;2023-04-24T10:44:08;17.90;1.00
774;DHT22;370;48.810;9.150;2023-04-24T10:46:36;17.00;1.00
774;DHT22;370;48.810;9.150;2023-04-24T10:49:04;16.50;1.00
774;DHT22;370;48.810;9.150;2023-04-24T10:51:46;16.50;1.00
774;DHT22;370;48.810;9.150;2023-04-24T10:54:22;16.40;1.00
774;DHT22;370;48.810;9.150;2023-04-24T10:56:50;16.40;1.00
774;DHT22;370;48.810;9.150;2023-04-24T10:59:25;16.00;1.00
774;DHT22;370;48.810;9.150;2023-04-24T11:01:53;15.60;1.00
774;DHT22;370;48.810;9.150;2023-04-24T11:04:29;15.70;1.00
774;DHT22;370;48.810;9.150;2023-04-24T11:06:57;15.60;1.00
774;DHT22;370;48.810;9.150;2023-04-24T11:09:26;15.30;1.00
774;DHT22;370;48.810;9.150;2023-04-24T11:12:04;15.00;1.00
774;DHT22;370;48.810;9.150;2023-04-24T11:15:01;14.70;1.00
774;DHT22;370;48.810;9.150;2023-04-24T11:17:32;14.60;1.00
774;DHT22;370;48.810;9.150;2023-04-24T11:20:02;14.70;1.00
774;DHT22;370;48.810;9.150;2023-04-24T11:22:33;14.90;1.00
774;DHT22;370;48.810;9.150;2023-04-24T11:25:01;15.10;1.00
774;DHT22;370;48.810;9.150;2023-04-24T11:27:30;15.60;1.00
774;DHT22;370;48.810;9.150;2023-04-24T11:30:03;16.40;1.00
774;DHT22;370;48.810;9.150;2023-04-24T11:32:33;18.30;1.00
774;DHT22;370;48.810;9.150;2023-04-24T11:35:02;20.10;1.00
774;DHT22;370;48.810;9.150;2023-04-24T11:37:34;21.00;1.00
774;DHT22;370;48.810;9.150;2023-04-24T11:40:01;21.10;1.00
774;DHT22;370;48.810;9.150;2023-04-24T11:42:34;20.30;1.00
774;DHT22;370;48.810;9.150;2023-04-24T11:45:08;19.70;1.00
774;DHT22;370;48.810;9.150;2023-04-24T11:47:35;18.80;1.00
774;DHT22;370;48.810;9.150;2023-04-24T11:50:04;18.00;1.00
774;DHT22;370;48.810;9.150;2023-04-24T11:52:31;17.20;1.00
774;DHT22;370;48.810;9.150;2023-04-24T11:54:58;16.20;1.00
774;DHT22;370;48.810;9.150;2023-04-24T11:57:26;16.10;1.00
774;DHT22;370;48.810;9.150;2023-04-24T11:59:54;16.70;1.00
774;DHT22;370;48.810;9.150;2023-04-24T12:02:26;18.60;1.00
774;DHT22;370;48.810;9.150;2023-04-24T12:04:54;20.60;1.00
774;DHT22;370;48.810;9.150;2023-04-24T12:07:21;21.20;1.00
774;DHT22;370;48.810;9.150;2023-04-24T12:09:54;21.10;1.00
774;DHT22;370;48.810;9.150;2023-04-24T12:12:23;21.70;1.00
774;DHT22;370;48.810;9.150;2023-04-24T12:14:53;21.80;1.00
774;DHT22;370;48.810;9.150;2023-04-24T12:17:26;21.20;1.00
774;DHT22;370;48.810;9.150;2023-04-24T12:19:57;20.30;1.00
774;DHT22;370;48.810;9.150;2023-04-24T12:22:24;19.20;1.00
774;DHT22;370;48.810;9.150;2023-04-24T12:25:02;18.50;1.00
774;DHT22;370;48.810;9.150;2023-04-24T12:27:30;17.80;1.00
774;DHT22;370;48.810;9.150;2023-04-24T12:29:59;17.70;1.00
774;DHT22;370;48.810;9.150;2023-04-24T12:32:28;18.00;1.00
774;DHT22;370;48.810;9.150;2023-04-24T12:34:55;17.80;1.00
774;DHT22;370;48.810;9.150;2023-04-24T12:37:23;17.40;1.00
774;DHT22;370;48.810;9.150;2023-04-24T12:40:01;16.60;1.00
774;DHT22;370;48.810;9.150;2023-04-24T12:42:29;16.20;1.00
774;DHT22;370;48.810;9.150;2023-04-24T12:44:57;17.10;1.00
774;DHT22;370;48.810;9.150;2023-04-24T12:47:25;17.90;1.00
774;DHT22;370;48.810;9.150;2023-04-24T12:49:53;17.80;1.00
774;DHT22;370;48.810;9.150;2023-04-24T12:52:21;17.60;1.00
774;DHT22;370;48.810;9.150;2023-04-24T12:54:49;17.20;1.00
774;DHT22;370;48.810;9.150;2023-04-24T12:57:16;16.70;1.00
774;DHT22;370;48.810;9.150;2023-04-24T12:59:42;16.10;1.00
774;DHT22;370;48.810;9.150;2023-04-24T13:02:10;15.30;1.00
774;DHT22;370;48.810;9.150;2023-04-24T13:04:37;14.50;1.00
774;DHT22;370;48.810;9.150;2023-04-24T13:07:05;13.90;1.00
774;DHT22;370;48.810;9.150;2023-04-24T13:09:33;13.90;1.00
774;DHT22;370;48.810;9.150;2023-04-24T13:12:00;16.20;1.00
774;DHT22;370;48.810;9.150;2023-04-24T13:14:27;19.10;1.00
774;DHT22;370;48.810;9.150;2023-04-24T13:16:54;21.00;1.00
774;DHT22;370;48.810;9.150;2023-04-24T13:19:21;22.30;1.00
774;DHT22;370;48.810;9.150;2023-04-24T13:21:47;22.00;1.00
774;DHT22;370;48.810;9.150;2023-04-24T13:24:15;21.10;1.00
774;DHT22;370;48.810;9.150;2023-04-24T13:26:42;20.30;1.00
774;DHT22;370;48.810;9.150;2023-04-24T13:29:10;19.80;1.00
774;DHT22;370;48.810;9.150;2023-04-24T13:31:36;20.00;1.00
774;DHT22;370;48.810;9.150;2023-04-24T13:34:03;19.50;1.00
774;DHT22;370;48.810;9.150;2023-04-24T13:36:30;19.00;1.00
774;DHT22;370;48.810;9.150;2023-04-24T13:38:57;18.40;1.00
774;DHT22;370;48.810;9.150;2023-04-24T13:41:25;17.80;1.00
774;DHT22;370;48.810;9.150;2023-04-24T13:43:52;17.30;1.00
774;DHT22;370;48.810;9.150;2023-04-24T13:46:19;16.90;1.00
774;DHT22;370;48.810;9.150;2023-04-24T13:48:46;16.50;1.00
774;DHT22;370;48.810;9.150;2023-04-24T13:51:13;15.80;1.00
774;DHT22;370;48.810;9.150;2023-04-24T13:53:40;14.70;1.00
774;DHT22;370;48.810;9.150;2023-04-24T13:56:06;15.30;1.00
774;DHT22;370;48.810;9.150;2023-04-24T13:58:35;15.70;1.00
774;DHT22;370;48.810;9.150;2023-04-24T14:01:03;15.90;1.00
774;DHT22;370;48.810;9.150;2023-04-24T14:03:30;16.90;1.00
774;DHT22;370;48.810;9.150;2023-04-24T14:05:57;19.00;1.00
774;DHT22;370;48.810;9.150;2023-04-24T14:08:24;21.10;1.00
774;DHT22;370;48.810;9.150;2023-04-24T14:10:51;21.70;1.00
774;DHT22;370;48.810;9.150;2023-04-24T14:13:18;22.60;1.00
774;DHT22;370;48.810;9.150;2023-04-24T14:15:47;24.70;1.00
774;DHT22;370;48.810;9.150;2023-04-24T14:18:14;26.10;1.00
774;DHT22;370;48.810;9.150;2023-04-24T14:20:41;26.50;1.00
774;DHT22;370;48.810;9.150;2023-04-24T14:23:07;26.60;1.00
774;DHT22;370;48.810;9.150;2023-04-24T14:25:34;26.10;1.00
774;DHT22;370;48.810;9.150;2023-04-24T14:28:01;25.10;1.00
774;DHT22;370;48.810;9.150;2023-04-24T14:30:28;25.10;1.00
774;DHT22;370;48.810;9.150;2023-04-24T14:32:56;25.20;1.00
774;DHT22;370;48.810;9.150;2023-04-24T14:35:23;24.40;1.00
774;DHT22;370;48.810;9.150;2023-04-24T14:37:49;22.80;1.00
774;DHT22;370;48.810;9.150;2023-04-24T14:40:16;21.20;1.00
774;DHT22;370;48.810;9.150;2023-04-24T14:42:43;19.80;1.00
774;DHT22;370;48.810;9.150;2023-04-24T14:45:10;18.30;1.00
774;DHT22;370;48.810;9.150;2023-04-24T14:47:37;17.20;1.00
774;DHT22;370;48.810;9.150;2023-04-24T14:50:07;16.40;1.00
774;DHT22;370;48.810;9.150;2023-04-24T14:52:34;16.00;1.00
774;DHT22;370;48.810;9.150;2023-04-24T14:55:01;15.90;1.00
774;DHT22;370;48.810;9.150;2023-04-24T14:57:28;15.80;1.00
774;DHT22;370;48.810;9.150;2023-04-24T14:59:55;16.00;1.00
774;DHT22;370;48.810;9.150;2023-04-24T15:02:22;16.80;1.00
774;DHT22;370;48.810;9.150;2023-04-24T15:04:49;18.50;1.00
774;DHT22;370;48.810;9.150;2023-04-24T15:07:17;19.80;1.00
774;DHT22;370;48.810;9.150;2023-04-24T15:09:44;19.60;1.00
774;DHT22;370;48.810;9.150;2023-04-24T15:12:12;18.60;1.00
774;DHT22;370;48.810;9.150;2023-04-24T15:14:39;17.80;1.00
774;DHT22;370;48.810;9.150;2023-04-24T15:17:06;17.20;1.00
774;DHT22;370;48.810;9.150;2023-04-24T15:19:33;16.50;1.00
774;DHT22;370;48.810;9.150;2023-04-24T15:22:00;15.90;1.00
774;DHT22;370;48.810;9.150;2023-04-24T15:24:28;15.60;1.00
774;DHT22;370;48.810;9.150;2023-04-24T15:26:55;15.30;1.00
774;DHT22;370;48.810;9.150;2023-04-24T15:29:23;14.90;1.00
774;DHT22;370;48.810;9.150;2023-04-24T15:31:50;14.40;1.00
774;DHT22;370;48.810;9.150;2023-04-24T15:34:16;13.80;1.00
774;DHT22;370;48.810;9.150;2023-04-24T15:36:43;13.10;1.00
774;DHT22;370;48.810;9.150;2023-04-24T15:39:10;12.30;1.00
774;DHT22;370;48.810;9.150;2023-04-24T15:41:38;12.10;1.00
774;DHT22;370;48.810;9.150;2023-04-24T15:44:05;12.10;1.00
774;DHT22;370;48.810;9.150;2023-04-24T15:46:34;12.20;1.00
774;DHT22;370;48.810;9.150;2023-04-24T15:49:01;12.10;1.00
774;DHT22;370;48.810;9.150;2023-04-24T15:51:28;12.00;1.00
774;DHT22;370;48.810;9.150;2023-04-24T15:53:56;11.90;1.00
774;DHT22;370;48.810;9.150;2023-04-24T15:56:22;11.90;1.00
774;DHT22;370;48.810;9.150;2023-04-24T15:58:50;12.40;1.00
774;DHT22;370;48.810;9.150;2023-04-24T16:01:17;13.50;1.20
774;DHT22;370;48.810;9.150;2023-04-24T16:03:44;13.90;1.00
774;DHT22;370;48.810;9.150;2023-04-24T16:06:11;13.90;1.00
774;DHT22;370;48.810;9.150;2023-04-24T16:08:38;14.10;1.00
774;DHT22;370;48.810;9.150;2023-04-24T16:11:05;14.80;1.00
774;DHT22;370;48.810;9.150;2023-04-24T16:13:32;15.40;1.00
774;DHT22;370;48.810;9.150;2023-04-24T16:16:00;16.10;1.00
774;DHT22;370;48.810;9.150;2023-04-24T16:18:27;16.60;1.00
774;DHT22;370;48.810;9.150;2023-04-24T16:20:53;16.80;1.00
774;DHT22;370;48.810;9.150;2023-04-24T16:23:20;16.60;1.00
774;DHT22;370;48.810;9.150;2023-04-24T16:25:47;16.30;1.00
774;DHT22;370;48.810;9.150;2023-04-24T16:28:14;15.80;1.00
774;DHT22;370;48.810;9.150;2023-04-24T16:30:40;15.50;1.00
774;DHT22;370;48.810;9.150;2023-04-24T16:33:08;15.10;1.00
774;DHT22;370;48.810;9.150;2023-04-24T16:35:36;14.90;1.00
774;DHT22;370;48.810;9.150;2023-04-24T16:38:03;14.60;1.00
774;DHT22;370;48.810;9.150;2023-04-24T16:40:29;14.50;1.00
774;DHT22;370;48.810;9.150;2023-04-24T16:42:56;14.40;1.00
774;DHT22;370;48.810;9.150;2023-04-24T16:45:23;14.40;1.00
774;DHT22;370;48.810;9.150;2023-04-24T16:47:50;14.50;1.00
774;DHT22;370;48.810;9.150;2023-04-24T16:50:18;14.70;1.00
774;DHT22;370;48.810;9.150;2023-04-24T16:52:45;14.70;1.00